Time;durP1;ratioP1;P1;durP2;ratioP2;P2;SDS_P1;SDS_P2;PMS_P1;PMS_P2;Temp;Humidity;BMP_temperature;BMP_pressure;BME280_temperature;BME280_humidity;BME280_pressure;Samples;Min_cycle;Max_cycle;Signal;HPM_P1;HPM_P2
2024/01/05 00:01:38;;;;;;;5.63;3.13;;;9.10;99.90;;;;;;4989351;28;20030;-53
2024/01/05 00:04:03;;;;;;;7.35;3.97;;;9.10;99.90;;;;;;5010315;28;20172;-53
2024/01/05 00:06:29;;;;;;;8.95;5.05;;;9.10;99.90;;;;;;4954658;28;20043;-54
2024/01/05 00:08:55;;;;;;;8.88;4.70;;;9.10;99.90;;;;;;4986280;28;20046;-53
2024/01/05 00:11:22;;;;;;;5.05;3.38;;;9.00;99.90;;;;;;4990501;28;20034;-53
2024/01/05 00:13:48;;;;;;;6.50;3.95;;;9.00;99.90;;;;;;4990558;28;20027;-52
2024/01/05 00:16:21;;;;;;;7.78;3.78;;;8.90;99.90;;;;;;4990611;28;20042;-52
2024/01/05 00:18:47;;;;;;;6.28;3.70;;;8.90;99.90;;;;;;4990076;28;20026;-52
2024/01/05 00:21:23;;;;;;;6.18;3.33;;;8.90;99.90;;;;;;5023387;28;20036;-53
2024/01/05 00:23:50;;;;;;;5.88;3.83;;;8.80;99.90;;;;;;5049606;28;20039;-53
2024/01/05 00:26:17;;;;;;;14.00;7.90;;;8.70;99.90;;;;;;5032865;28;20029;-52
2024/01/05 00:28:44;;;;;;;18.98;9.18;;;8.80;99.90;;;;;;5046650;28;20028;-53
2024/01/05 00:31:11;;;;;;;20.30;9.68;;;;;;;;;;5049517;28;20029;-53
2024/01/05 00:33:37;;;;;;;19.80;8.82;;;;;;;;;;5049354;28;20031;-52
2024/01/05 00:36:04;;;;;;;22.13;10.05;;;9.50;99.90;;;;;;5049505;28;20024;-53
2024/01/05 00:38:30;;;;;;;18.55;9.18;;;9.60;99.90;;;;;;5033479;28;20120;-53
2024/01/05 00:40:56;;;;;;;18.08;8.98;;;;;;;;;;5052981;28;20127;-52
2024/01/05 00:43:22;;;;;;;33.03;13.30;;;10.00;99.90;;;;;;5068461;28;20111;-53
2024/01/05 00:45:47;;;;;;;36.53;16.67;;;10.10;99.90;;;;;;5052038;28;20445;-54
2024/01/05 00:48:13;;;;;;;34.33;14.90;;;10.20;99.90;;;;;;5051764;28;20659;-52
2024/01/05 00:50:39;;;;;;;32.67;15.07;;;10.40;99.90;;;;;;5051368;28;20072;-53
2024/01/05 00:53:05;;;;;;;50.28;22.08;;;;;;;;;;5051944;28;20033;-52
2024/01/05 00:55:31;;;;;;;65.32;26.20;;;;;;;;;;5050258;28;20044;-53
2024/01/05 00:57:58;;;;;;;70.18;30.15;;;;;;;;;;5051961;28;20021;-53
2024/01/05 01:00:24;;;;;;;60.95;23.98;;;;;;;;;;5051487;28;20049;-53
2024/01/05 01:02:51;;;;;;;39.25;17.92;;;;;;;;;;5051195;28;20104;-53
2024/01/05 01:05:17;;;;;;;41.40;21.15;;;;;;;;;;5051356;28;20376;-52
2024/01/05 01:07:43;;;;;;;57.20;28.20;;;10.20;99.90;;;;;;5068277;28;20044;-53
2024/01/05 01:10:09;;;;;;;31.20;16.38;;;10.30;99.90;;;;;;5009045;28;20602;-53
2024/01/05 01:12:36;;;;;;;10.93;5.43;;;;;;;;;;5009285;28;20379;-53
2024/01/05 01:15:02;;;;;;;8.18;5.60;;;;;;;;;;5009279;28;20752;-53
2024/01/05 01:17:31;;;;;;;26.20;15.27;;;;;;;;;;5009301;28;20038;-53
2024/01/05 01:19:57;;;;;;;30.05;16.95;;;;;;;;;;5009292;28;20041;-53
2024/01/05 01:22:23;;;;;;;24.33;14.00;;;;;;;;;;5009239;28;20048;-52
2024/01/05 01:24:50;;;;;;;22.55;11.98;;;;;;;;;;5009131;28;20188;-52
2024/01/05 01:27:16;;;;;;;25.17;16.20;;;;;;;;;;5009416;28;20040;-53
2024/01/05 01:29:43;;;;;;;26.85;17.73;;;;;;;;;;5008364;28;20049;-52
2024/01/05 01:32:09;;;;;;;27.00;15.50;;;;;;;;;;5010808;28;20042;-52
2024/01/05 01:34:35;;;;;;;30.10;15.85;;;;;;;;;;5012643;28;20029;-54
2024/01/05 01:37:02;;;;;;;38.10;20.38;;;;;;;;;;5013129;28;20041;-52
2024/01/05 01:39:28;;;;;;;36.88;19.10;;;;;;;;;;5013044;28;20181;-52
2024/01/05 01:41:55;;;;;;;35.38;18.65;;;;;;;;;;5044815;28;20037;-52
2024/01/05 01:44:21;;;;;;;42.30;23.08;;;;;;;;;;5035843;28;20040;-52
2024/01/05 01:46:48;;;;;;;37.55;22.30;;;;;;;;;;5052515;28;20480;-53
2024/01/05 01:49:14;;;;;;;38.45;22.90;;;;;;;;;;5052377;28;20057;-52
2024/01/05 01:51:40;;;;;;;40.60;23.17;;;9.00;99.90;;;;;;5052246;28;20033;-53
2024/01/05 01:54:06;;;;;;;39.22;24.42;;;9.20;99.90;;;;;;5052878;28;20049;-52
2024/01/05 01:56:34;;;;;;;41.33;24.30;;;9.30;99.90;;;;;;5054787;28;20449;-53
2024/01/05 01:59:00;;;;;;;36.13;22.10;;;9.30;99.90;;;;;;5054978;28;20485;-52
2024/01/05 02:01:26;;;;;;;39.75;23.08;;;9.40;99.90;;;;;;5054703;28;20027;-52
2024/01/05 02:03:53;;;;;;;39.85;18.67;;;9.40;99.90;;;;;;5054542;28;20025;-53
2024/01/05 02:06:19;;;;;;;35.80;18.90;;;9.30;99.90;;;;;;5054475;28;20491;-52
2024/01/05 02:08:47;;;;;;;29.15;17.63;;;9.30;99.90;;;;;;5054770;28;20079;-53
2024/01/05 02:11:13;;;;;;;31.95;19.67;;;9.30;99.90;;;;;;5054719;28;20033;-52
2024/01/05 02:13:39;;;;;;;40.13;22.67;;;;;;;;;;5054988;28;20029;-53
2024/01/05 02:16:06;;;;;;;46.80;26.60;;;;;;;;;;5052251;28;20083;-52
2024/01/05 02:18:31;;;;;;;43.40;28.02;;;9.00;99.90;;;;;;5052357;28;20041;-53
2024/01/05 02:21:00;;;;;;;74.10;43.10;;;8.80;99.90;;;;;;5055512;28;20085;-53
2024/01/05 02:23:27;;;;;;;59.47;36.60;;;8.80;99.90;;;;;;5074587;28;20377;-52
2024/01/05 02:25:56;;;;;;;66.60;40.08;;;8.90;99.90;;;;;;5073989;28;20025;-53
2024/01/05 02:28:22;;;;;;;64.13;39.45;;;8.90;99.90;;;;;;5074227;28;20029;-52
2024/01/05 02:30:48;;;;;;;74.78;42.28;;;8.90;99.90;;;;;;5073913;28;20059;-52
2024/01/05 02:33:14;;;;;;;73.20;42.30;;;8.90;99.90;;;;;;5074415;28;20071;-52
2024/01/05 02:35:40;;;;;;;86.78;44.80;;;8.80;99.90;;;;;;5055205;28;20055;-53
2024/01/05 02:38:06;;;;;;;109.18;52.47;;;8.80;99.90;;;;;;5074061;28;20024;-52
2024/01/05 02:40:32;;;;;;;86.80;48.75;;;8.70;99.90;;;;;;5073820;28;20111;-53
2024/01/05 02:42:58;;;;;;;57.38;35.28;;;8.60;99.90;;;;;;5073540;28;20116;-52
2024/01/05 02:45:24;;;;;;;48.03;28.83;;;;;;;;;;5074224;28;20029;-52
2024/01/05 02:47:53;;;;;;;37.60;24.42;;;;;;;;;;5073760;28;20029;-53
2024/01/05 02:50:20;;;;;;;33.92;20.80;;;7.90;99.90;;;;;;5074032;28;20044;-53
2024/01/05 02:52:46;;;;;;;30.65;19.02;;;7.20;99.90;;;;;;5073836;28;20047;-52
2024/01/05 02:55:12;;;;;;;29.95;19.58;;;7.20;99.90;;;;;;5073535;28;20033;-53
2024/01/05 02:57:39;;;;;;;21.65;16.50;;;7.20;99.90;;;;;;5054848;28;20040;-52
2024/01/05 03:00:06;;;;;;;17.20;12.15;;;6.90;99.90;;;;;;5054414;28;20084;-52
2024/01/05 03:02:32;;;;;;;14.93;10.30;;;;;;;;;;5037936;28;20672;-52
2024/01/05 03:04:58;;;;;;;12.90;8.60;;;6.50;99.90;;;;;;5073833;28;20024;-53
2024/01/05 03:07:24;;;;;;;12.25;7.20;;;6.50;99.90;;;;;;5073592;28;20028;-52
2024/01/05 03:09:50;;;;;;;8.35;5.72;;;6.70;99.90;;;;;;5073332;28;20075;-52
2024/01/05 03:12:17;;;;;;;9.68;5.45;;;6.40;99.90;;;;;;5073638;28;20035;-52
2024/01/05 03:14:43;;;;;;;9.15;5.68;;;6.30;99.90;;;;;;5073492;28;20053;-52
2024/01/05 03:17:09;;;;;;;9.52;6.00;;;;;;;;;;5073455;28;20044;-52
2024/01/05 03:19:35;;;;;;;6.65;4.70;;;6.40;99.90;;;;;;5073193;28;20025;-52
2024/01/05 03:22:00;;;;;;;8.90;5.30;;;6.30;99.90;;;;;;5054299;28;20067;-53
2024/01/05 03:24:26;;;;;;;7.80;5.20;;;6.30;99.90;;;;;;5054448;28;20114;-52
2024/01/05 03:26:52;;;;;;;9.35;5.38;;;6.40;99.90;;;;;;5073050;28;20162;-52
2024/01/05 03:29:17;;;;;;;7.80;4.60;;;6.60;99.90;;;;;;5073043;28;20024;-52
2024/01/05 03:31:44;;;;;;;9.68;6.03;;;6.70;99.90;;;;;;5072953;28;20711;-52
2024/01/05 03:34:10;;;;;;;8.27;5.60;;;6.80;99.90;;;;;;5072852;28;20020;-52
2024/01/05 03:36:36;;;;;;;8.07;4.68;;;7.00;99.90;;;;;;5073054;28;20025;-52
2024/01/05 03:39:02;;;;;;;7.15;4.10;;;7.10;99.90;;;;;;5073389;28;20111;-52
2024/01/05 03:41:28;;;;;;;5.63;3.63;;;7.20;99.90;;;;;;5072699;28;20532;-52
2024/01/05 03:43:54;;;;;;;7.80;4.57;;;;;;;;;;5072718;28;20051;-53
2024/01/05 03:46:20;;;;;;;11.68;6.07;;;7.90;99.90;;;;;;5072632;28;20056;-53
2024/01/05 03:48:46;;;;;;;6.20;4.05;;;7.80;99.90;;;;;;5072512;28;20028;-56
2024/01/05 03:51:12;;;;;;;7.50;4.03;;;;;;;;;;5072495;28;20029;-54
2024/01/05 03:53:38;;;;;;;25.60;12.25;;;7.20;99.90;;;;;;5053328;28;20086;-52
2024/01/05 03:56:05;;;;;;;60.75;24.70;;;7.00;99.90;;;;;;5072743;28;20059;-52
2024/01/05 03:58:31;;;;;;;38.33;17.15;;;;;;;;;;5053304;28;20074;-53
2024/01/05 04:00:57;;;;;;;20.40;10.20;;;;;;;;;;5070289;28;20112;-52
2024/01/05 04:03:23;;;;;;;11.63;7.43;;;;;;;;;;5072380;28;20393;-52
2024/01/05 04:05:49;;;;;;;14.88;10.20;;;;;;;;;;5072275;28;20089;-52
2024/01/05 04:08:15;;;;;;;14.35;9.13;;;6.20;99.90;;;;;;5072252;28;20028;-53
2024/01/05 04:10:40;;;;;;;12.20;8.65;;;6.10;99.90;;;;;;5072196;28;20365;-52
2024/01/05 04:13:06;;;;;;;8.90;5.30;;;;;;;;;;5072252;28;20128;-52
2024/01/05 04:15:36;;;;;;;7.93;5.05;;;6.00;99.90;;;;;;5071960;28;20111;-53
2024/01/05 04:18:02;;;;;;;7.57;4.07;;;5.80;99.90;;;;;;5072212;28;20434;-52
2024/01/05 04:20:27;;;;;;;6.80;4.65;;;5.90;99.90;;;;;;5072113;28;20028;-52
2024/01/05 04:22:53;;;;;;;9.32;4.97;;;5.70;99.90;;;;;;5053261;28;20037;-52
2024/01/05 04:25:19;;;;;;;8.82;5.03;;;5.90;99.90;;;;;;5072014;28;20093;-53
2024/01/05 04:27:46;;;;;;;8.95;5.85;;;6.00;99.90;;;;;;5071950;28;20029;-52
2024/01/05 04:30:12;;;;;;;17.52;7.63;;;6.10;99.90;;;;;;5072236;28;20037;-53
2024/01/05 04:32:38;;;;;;;14.50;7.93;;;5.80;99.90;;;;;;5071581;28;20127;-52
2024/01/05 04:35:04;;;;;;;11.88;6.93;;;5.80;99.90;;;;;;5036334;28;20124;-52
2024/01/05 04:37:30;;;;;;;10.02;6.28;;;5.70;99.90;;;;;;5053024;28;20036;-53
2024/01/05 04:39:55;;;;;;;8.50;4.50;;;5.60;99.90;;;;;;5053074;28;20048;-52
2024/01/05 04:42:22;;;;;;;8.88;5.38;;;5.50;99.90;;;;;;5071747;28;20025;-53
2024/01/05 04:44:49;;;;;;;13.02;7.43;;;5.40;99.90;;;;;;5072345;28;20025;-52
2024/01/05 04:47:15;;;;;;;13.07;9.82;;;5.50;99.90;;;;;;5072071;28;20601;-52
2024/01/05 04:49:41;;;;;;;13.02;7.90;;;5.70;99.90;;;;;;5071643;28;20104;-52
2024/01/05 04:52:07;;;;;;;8.50;5.88;;;5.60;99.90;;;;;;5071849;28;20235;-52
2024/01/05 04:54:33;;;;;;;10.75;5.82;;;5.60;99.90;;;;;;5071697;28;20027;-52
2024/01/05 04:56:58;;;;;;;12.43;5.85;;;5.50;99.90;;;;;;5071507;28;20044;-52
2024/01/05 04:59:24;;;;;;;8.65;5.43;;;5.50;99.90;;;;;;5071523;28;20434;-52
2024/01/05 05:01:50;;;;;;;11.23;6.07;;;5.60;99.90;;;;;;5052753;28;20033;-52
2024/01/05 05:04:17;;;;;;;7.13;5.22;;;5.80;99.90;;;;;;5071731;28;20024;-52
2024/01/05 05:06:44;;;;;;;10.10;5.88;;;5.80;99.90;;;;;;5074928;28;20115;-53
2024/01/05 05:09:11;;;;;;;8.32;5.20;;;5.60;99.90;;;;;;5076188;28;20016;-52
2024/01/05 05:11:39;;;;;;;7.25;4.30;;;5.70;99.90;;;;;;5075691;28;20028;-52
2024/01/05 05:14:05;;;;;;;12.50;8.02;;;5.50;99.90;;;;;;5075689;28;20032;-52
2024/01/05 05:16:30;;;;;;;13.75;9.25;;;5.30;99.90;;;;;;5075883;28;20365;-53
2024/01/05 05:18:56;;;;;;;9.52;6.70;;;5.00;99.90;;;;;;5075852;28;20024;-53
2024/01/05 05:21:23;;;;;;;12.60;7.22;;;5.00;99.90;;;;;;5075320;28;20067;-52
2024/01/05 05:23:48;;;;;;;10.98;6.97;;;4.90;99.90;;;;;;5075309;28;20029;-52
2024/01/05 05:26:14;;;;;;;10.02;6.15;;;4.90;99.90;;;;;;5056562;28;20040;-52
2024/01/05 05:28:40;;;;;;;10.68;6.63;;;;;;;;;;5075528;28;20108;-52
2024/01/05 05:31:06;;;;;;;10.95;6.35;;;4.70;99.90;;;;;;5056268;28;20040;-52
2024/01/05 05:33:31;;;;;;;12.85;6.30;;;4.80;99.90;;;;;;5075252;28;20426;-52
2024/01/05 05:35:57;;;;;;;9.70;5.53;;;4.80;99.90;;;;;;5075791;28;20032;-52
2024/01/05 05:38:23;;;;;;;10.55;6.32;;;4.80;99.90;;;;;;5055650;28;20037;-52
2024/01/05 05:40:49;;;;;;;7.75;5.90;;;4.90;99.90;;;;;;5074916;28;20025;-52
2024/01/05 05:43:14;;;;;;;12.98;7.07;;;5.10;99.90;;;;;;5005417;28;20040;-52
2024/01/05 05:45:41;;;;;;;13.88;9.77;;;5.20;99.90;;;;;;5093341;28;20039;-53
2024/01/05 05:48:07;;;;;;;10.15;7.65;;;5.20;99.90;;;;;;5084884;28;20063;-51
2024/01/05 05:50:32;;;;;;;6.28;3.97;;;5.20;99.90;;;;;;5055005;28;20060;-51
2024/01/05 05:52:58;;;;;;;8.55;6.50;;;4.90;99.90;;;;;;5074098;28;20483;-51
2024/01/05 05:55:24;;;;;;;10.23;6.30;;;4.80;99.90;;;;;;5074235;28;20066;-52
2024/01/05 05:57:49;;;;;;;17.60;13.68;;;4.80;99.90;;;;;;5074733;28;20028;-51
2024/01/05 06:00:16;;;;;;;21.20;17.20;;;4.70;99.90;;;;;;5074589;28;20044;-52
2024/01/05 06:02:41;;;;;;;22.38;13.70;;;4.90;99.90;;;;;;5054942;28;20540;-52
2024/01/05 06:05:07;;;;;;;21.52;10.75;;;5.60;99.90;;;;;;5074264;28;20028;-51
2024/01/05 06:07:33;;;;;;;20.05;12.18;;;5.90;99.90;;;;;;5055750;28;20037;-51
2024/01/05 06:09:59;;;;;;;45.42;25.95;;;5.80;99.90;;;;;;5074820;28;20040;-53
2024/01/05 06:12:25;;;;;;;26.63;15.48;;;6.10;99.90;;;;;;5075476;28;20059;-51
2024/01/05 06:14:51;;;;;;;37.78;20.92;;;6.20;99.90;;;;;;5075228;28;20029;-52
2024/01/05 06:17:18;;;;;;;119.07;59.17;;;6.30;99.90;;;;;;5074588;28;20345;-51
2024/01/05 06:19:44;;;;;;;43.30;23.90;;;6.30;99.90;;;;;;5076721;28;20102;-51
2024/01/05 06:22:10;;;;;;;30.52;17.58;;;6.40;99.90;;;;;;5076309;28;20150;-54
2024/01/05 06:24:36;;;;;;;17.40;10.23;;;6.50;99.90;;;;;;5075166;28;20416;-51
2024/01/05 06:27:02;;;;;;;41.67;21.95;;;6.20;99.90;;;;;;5058865;28;20036;-51
2024/01/05 06:29:28;;;;;;;35.53;23.05;;;6.40;99.90;;;;;;5079613;28;20036;-51
2024/01/05 06:31:53;;;;;;;64.78;49.13;;;6.40;99.90;;;;;;5076098;28;20379;-52
2024/01/05 06:34:19;;;;;;;48.03;35.13;;;6.40;99.90;;;;;;5074077;28;20031;-52
2024/01/05 06:36:45;;;;;;;54.08;35.60;;;6.60;99.90;;;;;;5074100;28;20553;-52
2024/01/05 06:39:11;;;;;;;36.95;19.00;;;6.80;99.90;;;;;;5054818;28;20076;-51
2024/01/05 06:41:37;;;;;;;48.92;24.27;;;6.90;99.90;;;;;;5055142;28;20071;-52
2024/01/05 06:44:03;;;;;;;44.53;22.90;;;7.00;99.90;;;;;;5074138;28;20059;-52
2024/01/05 06:46:28;;;;;;;33.00;21.90;;;7.10;99.90;;;;;;5074027;28;20089;-52
2024/01/05 06:48:56;;;;;;;36.78;25.60;;;7.00;99.90;;;;;;5073789;28;20111;-52
2024/01/05 06:51:29;;;;;;;38.28;25.58;;;7.10;99.90;;;;;;5074259;28;20036;-52
2024/01/05 06:53:56;;;;;;;53.72;34.95;;;7.40;99.90;;;;;;5073862;28;20107;-51
2024/01/05 06:56:23;;;;;;;40.95;27.83;;;8.00;99.90;;;;;;5074007;28;20085;-52
2024/01/05 06:58:49;;;;;;;36.88;26.25;;;;;;;;;;5073537;28;20044;-52
2024/01/05 07:01:17;;;;;;;59.83;42.40;;;;;;;;;;5074170;28;20025;-52
2024/01/05 07:03:44;;;;;;;74.25;56.95;;;;;;;;;;5073804;28;20059;-51
2024/01/05 07:06:11;;;;;;;49.35;41.33;;;;;;;;;;5073427;28;20070;-52
2024/01/05 07:08:37;;;;;;;51.78;40.17;;;;;;;;;;5073642;28;20056;-52
2024/01/05 07:11:03;;;;;;;43.25;35.78;;;;;;;;;;5073379;28;20093;-51
2024/01/05 07:13:29;;;;;;;39.45;33.00;;;13.30;99.90;;;;;;5021335;28;20086;-53
2024/01/05 07:15:55;;;;;;;48.25;38.53;;;12.80;99.90;;;;;;5073545;28;20020;-52
2024/01/05 07:18:21;;;;;;;99.03;86.47;;;;;;;;;;5073507;28;20112;-52
2024/01/05 07:20:46;;;;;;;78.13;61.80;;;12.30;99.90;;;;;;5073275;28;20028;-52
2024/01/05 07:23:12;;;;;;;34.88;24.13;;;12.40;99.90;;;;;;5054488;28;20391;-52
2024/01/05 07:25:38;;;;;;;57.70;39.28;;;11.80;99.90;;;;;;5073192;28;20028;-52
2024/01/05 07:28:04;;;;;;;37.80;26.70;;;11.80;99.90;;;;;;5073325;28;20108;-52
2024/01/05 07:30:30;;;;;;;25.60;18.65;;;;;;;;;;5072595;28;20040;-52
2024/01/05 07:32:56;;;;;;;13.77;10.57;;;;;;;;;;5021163;28;20067;-52
2024/01/05 07:35:22;;;;;;;23.45;21.08;;;14.40;92.90;;;;;;5072970;28;20033;-52
2024/01/05 07:37:48;;;;;;;24.55;20.98;;;14.40;91.60;;;;;;5073137;28;20078;-51
2024/01/05 07:40:13;;;;;;;21.67;17.70;;;14.00;91.90;;;;;;5072831;28;20090;-51
2024/01/05 07:42:40;;;;;;;19.27;16.65;;;14.00;91.60;;;;;;5054068;28;20396;-52
2024/01/05 07:45:06;;;;;;;24.55;19.60;;;14.40;91.50;;;;;;5072787;28;20090;-52
2024/01/05 07:47:32;;;;;;;23.52;20.98;;;;;;;;;;5037437;28;20045;-52
2024/01/05 07:49:58;;;;;;;27.20;23.20;;;;;;;;;;5072632;28;20028;-52
2024/01/05 07:52:24;;;;;;;25.77;21.58;;;16.70;95.80;;;;;;5072601;28;20108;-52
2024/01/05 07:54:50;;;;;;;18.92;15.90;;;15.90;90.20;;;;;;5053876;28;20116;-52
2024/01/05 07:57:16;;;;;;;18.02;14.30;;;15.40;90.20;;;;;;5072576;28;20024;-52
2024/01/05 07:59:42;;;;;;;16.33;11.57;;;;;;;;;;5053607;28;20105;-52
2024/01/05 08:02:07;;;;;;;16.17;11.55;;;15.10;90.70;;;;;;5072528;28;20047;-53
2024/01/05 08:04:35;;;;;;;13.00;10.35;;;15.60;91.10;;;;;;5072468;28;20464;-53
2024/01/05 08:07:02;;;;;;;11.80;10.00;;;14.80;91.40;;;;;;5072724;28;20468;-53
2024/01/05 08:09:27;;;;;;;12.68;9.93;;;16.30;90.90;;;;;;5053478;28;20040;-52
2024/01/05 08:11:53;;;;;;;12.40;10.73;;;;;;;;;;5072196;28;20559;-50
2024/01/05 08:14:20;;;;;;;13.48;10.38;;;;;;;;;;5053579;28;20062;-51
2024/01/05 08:16:46;;;;;;;12.23;10.02;;;;;;;;;;5053519;28;20034;-50
2024/01/05 08:19:14;;;;;;;14.35;10.60;;;;;;;;;;5053511;28;20498;-50
2024/01/05 08:21:40;;;;;;;16.35;13.35;;;;;;;;;;5072180;28;20036;-50
2024/01/05 08:24:06;;;;;;;22.40;16.05;;;;;;;;;;5072200;28;20024;-50
2024/01/05 08:26:32;;;;;;;23.45;14.63;;;;;;;;;;5071973;28;20028;-50
2024/01/05 08:28:58;;;;;;;24.77;18.30;;;;;;;;;;5072103;28;20017;-50
2024/01/05 08:31:24;;;;;;;24.88;20.15;;;;;;;;;;5072206;28;20041;-51
2024/01/05 08:33:50;;;;;;;33.85;22.42;;;;;;;;;;5072259;28;20039;-50
2024/01/05 08:36:17;;;;;;;47.50;32.00;;;;;;;;;;5069728;28;20102;-51
2024/01/05 08:38:44;;;;;;;115.60;72.65;;;;;;;;;;5072411;28;20033;-51
2024/01/05 08:41:11;;;;;;;91.00;60.35;;;;;;;;;;5072190;28;20033;-51
2024/01/05 08:43:38;;;;;;;94.35;64.72;;;18.00;85.50;;;;;;5071842;28;20472;-50
2024/01/05 08:46:04;;;;;;;92.43;65.30;;;;;;;;;;5071605;28;20044;-51
2024/01/05 08:48:30;;;;;;;71.50;52.72;;;;;;;;;;5072069;28;20028;-50
2024/01/05 08:50:56;;;;;;;65.32;52.22;;;16.50;88.50;;;;;;5069619;28;20040;-50
2024/01/05 08:53:22;;;;;;;73.95;51.95;;;16.60;89.50;;;;;;5071661;28;20488;-50
2024/01/05 08:55:48;;;;;;;69.22;49.95;;;16.50;90.10;;;;;;5056571;28;20029;-50
2024/01/05 08:58:14;;;;;;;69.70;49.50;;;;;;;;;;5032865;28;20118;-50
2024/01/05 09:00:40;;;;;;;80.53;54.70;;;17.00;90.20;;;;;;5032504;28;20057;-50
2024/01/05 09:03:06;;;;;;;74.57;52.92;;;17.30;90.60;;;;;;5016408;28;20412;-51
2024/01/05 09:05:32;;;;;;;75.93;54.78;;;17.10;95.10;;;;;;5051976;28;20032;-50
2024/01/05 09:07:58;;;;;;;83.15;60.55;;;17.10;92.90;;;;;;5051802;28;20071;-49
2024/01/05 09:10:24;;;;;;;73.70;58.58;;;17.00;95.80;;;;;;5051450;28;20033;-50
2024/01/05 09:12:49;;;;;;;76.75;56.42;;;17.10;95.60;;;;;;5032857;28;20048;-50
2024/01/05 09:15:19;;;;;;;80.10;58.35;;;17.60;90.60;;;;;;5051830;28;20032;-50
2024/01/05 09:17:45;;;;;;;76.43;57.40;;;17.80;90.30;;;;;;5051605;28;20041;-50
2024/01/05 09:20:12;;;;;;;74.50;55.50;;;;;;;;;;5051504;28;20460;-50
2024/01/05 09:22:38;;;;;;;75.93;54.97;;;;;;;;;;5032942;28;20076;-50
2024/01/05 09:25:04;;;;;;;99.35;70.63;;;19.20;93.20;;;;;;5051859;28;20036;-50
2024/01/05 09:27:30;;;;;;;79.00;55.22;;;19.50;96.20;;;;;;5051577;28;20025;-51
2024/01/05 09:29:56;;;;;;;77.75;58.00;;;19.30;99.10;;;;;;4999572;28;20033;-50
2024/01/05 09:32:22;;;;;;;70.82;52.83;;;19.60;92.90;;;;;;5051625;28;20373;-51
2024/01/05 09:34:48;;;;;;;71.88;48.97;;;;;;;;;;5051713;28;20029;-51
2024/01/05 09:37:15;;;;;;;92.07;62.78;;;20.20;86.20;;;;;;5051384;28;20365;-50
2024/01/05 09:39:42;;;;;;;71.53;53.38;;;20.00;86.20;;;;;;5051433;28;20021;-50
2024/01/05 09:42:08;;;;;;;69.15;52.03;;;19.80;86.30;;;;;;5051274;28;20430;-50
2024/01/05 09:44:36;;;;;;;62.03;47.58;;;19.70;87.00;;;;;;5051328;28;20131;-51
2024/01/05 09:47:02;;;;;;;57.70;44.25;;;19.50;87.10;;;;;;5051335;28;20025;-50
2024/01/05 09:49:33;;;;;;;56.85;44.58;;;19.10;87.30;;;;;;5051139;28;20029;-50
2024/01/05 09:51:59;;;;;;;65.07;49.97;;;18.80;88.00;;;;;;5051920;28;20167;-50
2024/01/05 09:54:25;;;;;;;67.18;51.15;;;18.70;88.70;;;;;;5055130;28;20040;-50
2024/01/05 09:56:51;;;;;;;62.90;48.55;;;18.70;89.50;;;;;;5036060;28;20033;-50
2024/01/05 09:59:19;;;;;;;49.10;36.63;;;18.80;89.60;;;;;;5054850;28;20083;-50
2024/01/05 10:01:51;;;;;;;62.53;47.30;;;18.40;89.60;;;;;;5054714;28;20437;-51
2024/01/05 10:04:37;;;;;;;50.65;42.47;;;18.20;90.10;;;;;;4992218;28;20199;-50
2024/01/05 10:07:03;;;;;;;54.35;45.53;;;;;;;;;;4992907;28;20046;-50
2024/01/05 10:09:31;;;;;;;61.10;47.78;;;;;;;;;;4992723;28;20050;-51
2024/01/05 10:11:57;;;;;;;58.70;47.50;;;17.40;90.90;;;;;;4992816;28;20193;-50
2024/01/05 10:14:26;;;;;;;50.85;41.28;;;17.10;91.50;;;;;;4992838;28;20437;-50
2024/01/05 10:17:10;;;;;;;74.20;56.83;;;17.30;92.00;;;;;;4991935;28;20136;-50
2024/01/05 10:19:36;;;;;;;155.45;93.38;;;17.30;92.20;;;;;;4992482;28;20062;-51
2024/01/05 10:22:13;;;;;;;146.93;89.43;;;17.20;92.30;;;;;;4976234;28;20580;-50
2024/01/05 10:24:40;;;;;;;110.25;73.93;;;;;;;;;;4992359;28;20447;-50
2024/01/05 10:27:10;;;;;;;91.63;66.20;;;17.00;99.20;;;;;;4992210;28;20118;-50
2024/01/05 10:29:42;;;;;;;92.90;65.63;;;17.10;94.10;;;;;;4992274;28;20042;-51
2024/01/05 10:32:19;;;;;;;111.43;77.03;;;17.00;93.10;;;;;;4992545;28;20038;-50
2024/01/05 10:34:47;;;;;;;79.35;59.75;;;16.90;92.90;;;;;;5007354;28;20508;-50
2024/01/05 10:37:15;;;;;;;118.88;75.88;;;16.80;93.20;;;;;;5035265;28;20072;-50
2024/01/05 10:39:52;;;;;;;68.32;48.55;;;16.90;93.40;;;;;;5053496;28;20021;-52
2024/01/05 10:42:20;;;;;;;55.40;42.38;;;16.80;93.20;;;;;;5053935;28;20719;-51
2024/01/05 10:44:51;;;;;;;70.82;48.83;;;16.90;93.60;;;;;;5054248;28;20435;-51
2024/01/05 10:47:20;;;;;;;78.63;53.35;;;17.00;93.90;;;;;;5035112;28;20504;-51
2024/01/05 10:49:50;;;;;;;56.85;38.55;;;17.00;93.60;;;;;;5052679;28;20072;-51
2024/01/05 10:52:20;;;;;;;53.90;39.95;;;17.00;93.80;;;;;;5015530;28;20037;-50
2024/01/05 10:54:48;;;;;;;63.05;44.70;;;17.20;93.40;;;;;;5051532;28;20029;-51
2024/01/05 10:57:16;;;;;;;86.28;69.25;;;17.30;93.50;;;;;;5051921;28;20052;-54
2024/01/05 10:59:50;;;;;;;142.73;102.80;;;17.10;93.70;;;;;;5053292;28;20056;-52
2024/01/05 11:02:28;;;;;;;184.48;131.32;;;17.20;94.40;;;;;;5053899;28;20076;-55
2024/01/05 11:05:08;;;;;;;173.77;129.75;;;17.10;94.10;;;;;;5035094;28;20048;-55
2024/01/05 11:07:35;;;;;;;190.98;137.95;;;17.00;94.40;;;;;;5053557;28;20036;-52
2024/01/05 11:10:13;;;;;;;215.45;154.23;;;16.70;95.00;;;;;;5053432;28;20032;-57
2024/01/05 11:13:00;;;;;;;244.25;180.32;;;16.50;95.00;;;;;;5053181;28;20036;-57
2024/01/05 11:15:46;;;;;;;249.50;187.45;;;16.70;95.10;;;;;;5053233;28;20024;-53
2024/01/05 11:18:24;;;;;;;253.07;186.75;;;16.80;95.00;;;;;;5053223;28;20028;-49
2024/01/05 11:21:11;;;;;;;232.90;176.23;;;16.90;95.50;;;;;;5034225;28;20047;-49
2024/01/05 11:23:40;;;;;;;212.82;170.23;;;17.20;95.10;;;;;;5034060;28;20037;-51
2024/01/05 11:26:06;;;;;;;226.88;175.20;;;17.10;94.80;;;;;;5052999;28;20056;-52
2024/01/05 11:28:36;;;;;;;229.63;172.60;;;17.10;94.50;;;;;;5053049;28;20033;-50
2024/01/05 11:31:03;;;;;;;200.88;154.98;;;17.00;94.80;;;;;;5052739;28;20512;-51
2024/01/05 11:33:48;;;;;;;196.88;144.05;;;16.90;94.90;;;;;;5053266;28;20094;-51
2024/01/05 11:36:49;;;;;;;164.75;122.28;;;16.90;94.80;;;;;;5052964;28;20055;-52
2024/01/05 11:39:53;;;;;;;127.30;91.05;;;17.00;95.00;;;;;;5053040;28;20025;-50
2024/01/05 11:42:25;;;;;;;89.78;64.72;;;17.10;94.60;;;;;;5010661;28;20109;-50
2024/01/05 11:44:54;;;;;;;82.85;57.13;;;17.10;93.90;;;;;;5046710;28;20037;-50
2024/01/05 11:47:41;;;;;;;67.88;45.03;;;17.10;93.40;;;;;;5052636;28;20523;-49
2024/01/05 11:50:26;;;;;;;54.67;37.53;;;;;;;;;;5052424;28;20033;-51
2024/01/05 11:53:12;;;;;;;52.17;39.85;;;16.60;93.00;;;;;;5051989;28;20028;-48
2024/01/05 11:55:44;;;;;;;50.97;38.28;;;16.40;94.00;;;;;;5051592;28;20040;-48
2024/01/05 11:58:11;;;;;;;63.13;40.80;;;;;;;;;;4989391;28;20046;-49
2024/01/05 12:00:36;;;;;;;64.53;42.50;;;16.60;99.90;;;;;;4989470;28;20078;-52
2024/01/05 12:03:05;;;;;;;60.35;39.55;;;16.70;99.90;;;;;;4989375;28;20066;-48
2024/01/05 12:05:31;;;;;;;72.68;40.90;;;;;;;;;;4989440;28;20030;-52
2024/01/05 12:07:57;;;;;;;48.33;35.65;;;;;;;;;;4989550;28;20035;-50
2024/01/05 12:10:27;;;;;;;48.10;35.70;;;;;;;;;;4989291;28;20038;-48
2024/01/05 12:12:54;;;;;;;53.85;36.33;;;;;;;;;;4989359;28;20580;-48
2024/01/05 12:15:20;;;;;;;58.60;39.70;;;16.40;95.30;;;;;;4988719;28;20030;-51
2024/01/05 12:17:50;;;;;;;58.97;39.75;;;16.40;96.10;;;;;;4989467;28;20118;-52
2024/01/05 12:20:17;;;;;;;61.63;42.33;;;16.30;96.50;;;;;;4989326;28;20033;-53
2024/01/05 12:22:43;;;;;;;58.33;40.60;;;16.30;99.20;;;;;;4988991;28;20033;-50
2024/01/05 12:25:10;;;;;;;52.97;38.63;;;;;;;;;;4989309;28;20022;-49
2024/01/05 12:27:37;;;;;;;58.47;39.03;;;;;;;;;;4989303;28;20062;-49
2024/01/05 12:30:04;;;;;;;52.50;37.35;;;16.10;97.10;;;;;;5042253;28;20041;-51
2024/01/05 12:32:33;;;;;;;43.50;31.95;;;;;;;;;;5051155;28;20029;-53
2024/01/05 12:35:00;;;;;;;45.92;34.00;;;15.50;97.30;;;;;;5051335;28;20024;-51
2024/01/05 12:37:26;;;;;;;39.90;26.90;;;15.20;99.00;;;;;;5050798;28;20025;-52
2024/01/05 12:39:52;;;;;;;32.85;23.10;;;;;;;;;;5031888;28;20041;-52
2024/01/05 12:42:18;;;;;;;35.80;23.50;;;14.90;99.90;;;;;;5051291;28;20025;-50
2024/01/05 12:44:44;;;;;;;35.50;23.75;;;14.80;99.90;;;;;;5050658;28;20074;-52
2024/01/05 12:47:10;;;;;;;35.60;24.83;;;14.80;99.90;;;;;;4998901;28;20558;-51
2024/01/05 12:49:37;;;;;;;33.22;20.83;;;14.80;99.90;;;;;;5031764;28;20040;-49
2024/01/05 12:52:07;;;;;;;30.08;18.17;;;14.70;99.90;;;;;;5050953;28;20061;-52
2024/01/05 12:54:43;;;;;;;32.13;22.67;;;14.60;99.90;;;;;;5032459;28;20089;-52
2024/01/05 12:57:09;;;;;;;29.55;22.75;;;14.50;99.90;;;;;;5031819;28;20039;-52
2024/01/05 12:59:37;;;;;;;55.97;32.45;;;14.40;99.90;;;;;;5050434;28;20049;-50
2024/01/05 13:02:06;;;;;;;53.67;29.73;;;14.40;99.90;;;;;;5050939;28;20095;-50